Terminal Aerodrome Forecast
Issued by NWS Wilmington, OH

Current Version | Previous Version | Text Only | Print | Product List | Glossary Off
Versions: 1 2 3 4 5 6 7 8 9 10 11 12 13

000
FTUS41 KILN 171739
TAFCMH
TAF
KCMH 171739Z 1718/1818 26017G25KT P6SM BKN030 OVC035
     FM171900 28017G28KT P6SM OVC035
     FM172200 29013KT P6SM BKN035
     FM180200 30008KT P6SM SCT040
     FM180500 VRB04KT P6SM SCT250
     FM181500 16005KT P6SM BKN040=

USA.gov is the U.S. government's official web portal to all federal, state and local government web resources and services.